AIRPORT ID: 6K5

DATE: 2024-06-16 ZULU TIME: 15.35 LOCAL TIME: 7.35


METAR K6K5 161535Z AUTO 00000KT 06/01 A3002

ALTIMETER: A3002 Q1017

DENSITY ALT: 2700 Ft

WIND DIRECT: 360

WIND SPEED: 1 Gust

WIND CONDITIONS:

VISIBILTY: Not Available

TEMPERATURE: 42 F 6 C

DEW POINT: 34 F 1 C

HUMID: 73%

LCL: 1,000-3,000 feet

RADIO CHECK: 0

ADVISARIES: 3

GREETINGS: 0

CONVERSATIONS: 3